Huntsville (HSV/KHSV)

Map

Destinations

Information

Location
Huntsville, AL
Local Time
22:57 / 10:57 pm
GMT Time
03:57 / 3:57 am
Gates
Unassigned
No FAA reported delays
METAR KHSV 170353Z 18004KT 10SM FEW250 26/26 A3005 RMK AO2 SLP169 T02560256
TAF KHSV 162320Z 1700/1724 21005KT P6SM VCTS SCT035CB BKN050 FM170500 VRB03KT P6SM SCT050 SCT250 TEMPO 1710/1712 5SM BR FM171500 24009KT P6SM SCT040 BKN250